Time;durP1;ratioP1;P1;durP2;ratioP2;P2;SDS_P1;SDS_P2;PMS_P1;PMS_P2;Temp;Humidity;BMP_temperature;BMP_pressure;BME280_temperature;BME280_humidity;BME280_pressure;Samples;Min_cycle;Max_cycle;Signal;HPM_P1;HPM_P2
2021/11/23 00:00:17;;;;;;;7.82;4.82;;;1.10;99.90;;;;;;5032856;28;20025;-66
2021/11/23 00:02:43;;;;;;;9.25;5.07;;;1.10;99.90;;;;;;4968352;28;20046;-67
2021/11/23 00:05:11;;;;;;;8.32;4.65;;;1.10;99.90;;;;;;4951401;29;20475;-65
2021/11/23 00:07:37;;;;;;;6.20;5.03;;;1.10;99.90;;;;;;4935537;29;20089;-64
2021/11/23 00:10:05;;;;;;;7.10;5.07;;;1.10;99.90;;;;;;4957003;28;20035;-67
2021/11/23 00:12:30;;;;;;;6.15;5.10;;;1.00;99.90;;;;;;4949857;28;20042;-65
2021/11/23 00:14:56;;;;;;;5.88;4.97;;;1.00;99.90;;;;;;4947695;28;20039;-65
2021/11/23 00:17:21;;;;;;;8.02;5.03;;;1.00;99.90;;;;;;4941097;29;20027;-65
2021/11/23 00:19:47;;;;;;;7.18;5.43;;;1.00;99.90;;;;;;4937140;29;20027;-66
2021/11/23 00:22:13;;;;;;;5.95;5.15;;;1.00;99.90;;;;;;4947341;29;20681;-65
2021/11/23 00:24:39;;;;;;;8.02;5.13;;;1.00;99.90;;;;;;4949273;29;20035;-65
2021/11/23 00:27:05;;;;;;;6.45;5.25;;;0.90;99.90;;;;;;4986568;28;20118;-66
2021/11/23 00:29:32;;;;;;;6.38;5.30;;;1.00;99.90;;;;;;4940199;28;20042;-65
2021/11/23 00:31:58;;;;;;;8.60;6.05;;;0.90;99.90;;;;;;4937312;29;20580;-67
2021/11/23 00:34:24;;;;;;;8.18;5.65;;;0.90;99.90;;;;;;4949891;28;20053;-65
2021/11/23 00:36:50;;;;;;;7.22;5.80;;;0.90;99.90;;;;;;4944945;28;20093;-66
2021/11/23 00:39:16;;;;;;;7.88;5.32;;;0.90;99.90;;;;;;4948935;29;20488;-65
2021/11/23 00:41:47;;;;;;;6.10;5.07;;;0.90;99.90;;;;;;4946039;28;20020;-65
2021/11/23 00:44:17;;;;;;;6.90;5.47;;;0.90;99.90;;;;;;4953521;28;20037;-65
2021/11/23 00:46:43;;;;;;;6.65;5.60;;;0.80;99.90;;;;;;4948561;28;20110;-66
2021/11/23 00:49:13;;;;;;;6.70;5.38;;;0.80;99.90;;;;;;4945259;28;20110;-67
2021/11/23 00:51:38;;;;;;;7.05;5.45;;;0.80;99.90;;;;;;4946519;28;20016;-67
2021/11/23 00:54:04;;;;;;;6.72;5.63;;;0.80;99.90;;;;;;4947094;28;20034;-65
2021/11/23 00:56:30;;;;;;;6.53;5.53;;;0.80;99.90;;;;;;4948902;28;20034;-65
2021/11/23 00:58:55;;;;;;;8.48;5.82;;;0.70;99.90;;;;;;4988499;28;20031;-65
2021/11/23 01:01:21;;;;;;;7.50;5.78;;;0.70;99.90;;;;;;4949965;28;20391;-66
2021/11/23 01:03:46;;;;;;;6.68;5.70;;;0.70;99.90;;;;;;4950028;29;20044;-67
2021/11/23 01:06:12;;;;;;;9.32;5.78;;;0.70;99.90;;;;;;4942410;29;20034;-66
2021/11/23 01:08:39;;;;;;;8.20;6.03;;;0.70;99.90;;;;;;4938214;29;20077;-65
2021/11/23 01:11:06;;;;;;;8.40;5.80;;;0.70;99.90;;;;;;4940262;28;20042;-66
2021/11/23 01:13:32;;;;;;;9.15;5.68;;;0.70;99.90;;;;;;4948587;28;20140;-65
2021/11/23 01:15:57;;;;;;;7.80;6.28;;;0.60;99.90;;;;;;4950877;28;20070;-65
2021/11/23 01:18:23;;;;;;;7.47;5.88;;;0.60;99.90;;;;;;4943294;28;20114;-65
2021/11/23 01:20:49;;;;;;;8.23;6.22;;;0.70;99.90;;;;;;4949242;28;20031;-65
2021/11/23 01:23:15;;;;;;;8.65;6.13;;;0.60;99.90;;;;;;4949658;28;20039;-65
2021/11/23 01:25:41;;;;;;;9.73;6.63;;;0.60;99.90;;;;;;4963543;28;20400;-64
2021/11/23 01:28:06;;;;;;;7.75;5.97;;;0.60;99.90;;;;;;4987062;28;20021;-62
2021/11/23 01:30:32;;;;;;;9.07;6.30;;;0.60;99.90;;;;;;4951251;28;20023;-64
2021/11/23 01:32:57;;;;;;;8.80;6.43;;;0.60;99.90;;;;;;4948146;28;20027;-66
2021/11/23 01:35:23;;;;;;;8.38;6.03;;;0.50;99.90;;;;;;4962599;28;20029;-64
2021/11/23 01:37:49;;;;;;;7.65;6.30;;;0.50;99.90;;;;;;4948219;29;20118;-66
2021/11/23 01:40:17;;;;;;;8.93;6.20;;;0.50;99.90;;;;;;4949630;28;20061;-65
2021/11/23 01:42:43;;;;;;;8.82;6.82;;;0.50;99.90;;;;;;4944117;29;20027;-65
2021/11/23 01:45:10;;;;;;;8.82;6.65;;;0.50;99.90;;;;;;4950100;28;20038;-64
2021/11/23 01:47:37;;;;;;;9.00;6.78;;;0.50;99.90;;;;;;4962479;28;20025;-66
2021/11/23 01:50:05;;;;;;;10.63;6.70;;;0.50;99.90;;;;;;4969794;28;20328;-64
2021/11/23 01:52:31;;;;;;;9.60;6.93;;;0.50;99.90;;;;;;4962052;28;20078;-65
2021/11/23 01:54:57;;;;;;;8.82;6.30;;;0.50;99.90;;;;;;4957514;28;20059;-65
2021/11/23 01:57:23;;;;;;;8.82;6.93;;;0.50;99.90;;;;;;4952150;28;20058;-66
2021/11/23 01:59:48;;;;;;;9.43;6.53;;;0.50;99.90;;;;;;5011282;28;20039;-65
2021/11/23 02:02:15;;;;;;;9.32;6.68;;;0.50;99.90;;;;;;4934222;29;20032;-65
2021/11/23 02:04:40;;;;;;;9.38;6.75;;;0.50;99.90;;;;;;4935357;29;20035;-65
2021/11/23 02:07:07;;;;;;;11.93;7.10;;;0.50;99.90;;;;;;4947471;28;20031;-67
2021/11/23 02:09:33;;;;;;;8.40;6.90;;;0.50;99.90;;;;;;4952802;28;20034;-66
2021/11/23 02:12:00;;;;;;;11.10;7.55;;;0.40;99.90;;;;;;4948394;29;20390;-67
2021/11/23 02:14:28;;;;;;;8.75;7.15;;;0.40;99.90;;;;;;4947308;28;20550;-65
2021/11/23 02:16:54;;;;;;;9.45;6.82;;;0.40;99.90;;;;;;4930495;29;20028;-65
2021/11/23 02:19:20;;;;;;;10.40;7.40;;;0.40;99.90;;;;;;4939989;29;20038;-65
2021/11/23 02:21:45;;;;;;;11.07;7.75;;;0.40;99.90;;;;;;4933857;29;20375;-65
2021/11/23 02:24:11;;;;;;;10.35;6.72;;;0.40;99.90;;;;;;4948550;29;20027;-65
2021/11/23 02:26:37;;;;;;;10.80;6.82;;;0.40;99.90;;;;;;4965090;28;20134;-66
2021/11/23 02:29:03;;;;;;;8.85;7.40;;;0.40;99.90;;;;;;4961775;28;20023;-65
2021/11/23 02:31:29;;;;;;;10.52;7.13;;;0.40;99.90;;;;;;4949353;29;20023;-64
2021/11/23 02:33:54;;;;;;;10.00;6.90;;;0.40;99.90;;;;;;4944097;28;20099;-64
2021/11/23 02:36:21;;;;;;;10.80;7.60;;;0.30;99.90;;;;;;4936366;29;20106;-65
2021/11/23 02:38:49;;;;;;;9.70;7.07;;;0.30;99.90;;;;;;4937158;28;20102;-64
2021/11/23 02:41:15;;;;;;;10.27;7.32;;;0.30;99.90;;;;;;4947625;28;20027;-66
2021/11/23 02:43:42;;;;;;;10.85;7.88;;;0.30;99.90;;;;;;4981692;28;20033;-65
2021/11/23 02:48:43;;;;;;;9.10;7.05;;;0.30;99.90;;;;;;5569465;23;20053;-89
2021/11/23 02:51:16;;;;;;;11.48;8.00;;;0.30;99.90;;;;;;5024724;28;20083;-89
2021/11/23 02:53:45;;;;;;;11.35;7.15;;;0.30;99.90;;;;;;5040037;28;20090;-88
2021/11/23 02:56:11;;;;;;;12.27;7.75;;;0.40;99.90;;;;;;5040146;28;20025;-89
2021/11/23 02:58:38;;;;;;;11.00;7.82;;;0.30;99.90;;;;;;5021856;28;20438;-89
2021/11/23 03:01:06;;;;;;;12.02;8.18;;;0.40;99.90;;;;;;5012121;28;20133;-88
2021/11/23 03:06:01;;;;;;;8.60;6.85;;;0.30;99.90;;;;;;5069449;28;20052;-70
2021/11/23 03:08:26;;;;;;;10.98;7.57;;;0.30;99.90;;;;;;5072831;28;20020;-69
2021/11/23 03:10:52;;;;;;;11.60;7.45;;;0.30;99.90;;;;;;5065792;28;20044;-69
2021/11/23 03:13:18;;;;;;;12.20;7.53;;;0.30;99.90;;;;;;5067298;28;20170;-68
2021/11/23 03:15:44;;;;;;;10.45;7.47;;;0.30;99.90;;;;;;5073869;28;20480;-68
2021/11/23 03:18:10;;;;;;;12.60;7.43;;;0.30;99.90;;;;;;5067802;28;20043;-69
2021/11/23 03:20:37;;;;;;;12.15;7.68;;;0.30;99.90;;;;;;5080999;28;20036;-69
2021/11/23 03:23:04;;;;;;;9.95;7.50;;;0.20;99.90;;;;;;5067294;28;20069;-69
2021/11/23 03:25:30;;;;;;;12.38;8.25;;;0.20;99.90;;;;;;5072850;28;20025;-68
2021/11/23 03:27:56;;;;;;;9.68;7.60;;;0.20;99.90;;;;;;5070924;28;20472;-69
2021/11/23 03:30:26;;;;;;;10.77;7.78;;;0.20;99.90;;;;;;5073059;28;20055;-68
2021/11/23 03:32:54;;;;;;;10.85;7.82;;;0.10;99.90;;;;;;5064056;28;20082;-69
2021/11/23 03:35:24;;;;;;;12.40;8.27;;;0.10;99.90;;;;;;5066855;28;20388;-69
2021/11/23 03:37:51;;;;;;;11.13;7.78;;;0.10;99.90;;;;;;5065023;28;20062;-69
2021/11/23 03:40:21;;;;;;;10.32;7.88;;;0.10;99.90;;;;;;5069993;28;20384;-69
2021/11/23 03:42:47;;;;;;;10.43;7.85;;;0.00;99.90;;;;;;5071238;28;20035;-69
2021/11/23 03:45:13;;;;;;;10.77;7.30;;;0.10;99.90;;;;;;5071851;28;20032;-69
2021/11/23 03:47:39;;;;;;;9.93;7.13;;;0.00;99.90;;;;;;5069412;28;20055;-69
2021/11/23 03:50:11;;;;;;;12.13;7.60;;;0.10;99.90;;;;;;5070969;28;20032;-69
2021/11/23 03:52:37;;;;;;;12.95;8.27;;;0.10;99.90;;;;;;5076119;28;20108;-69
2021/11/23 03:55:08;;;;;;;10.23;7.50;;;0.00;99.90;;;;;;5072523;28;20028;-68
2021/11/23 03:57:34;;;;;;;7.57;5.67;;;0.00;99.90;;;;;;5062725;28;20028;-69
2021/11/23 04:00:00;;;;;;;11.38;7.88;;;0.00;99.90;;;;;;5069358;28;20037;-69
2021/11/23 04:02:25;;;;;;;10.88;8.10;;;0.00;99.90;;;;;;5064324;28;20032;-69
2021/11/23 04:04:53;;;;;;;13.48;8.73;;;-0.10;99.90;;;;;;5065704;28;20118;-68
2021/11/23 04:07:19;;;;;;;12.82;8.55;;;-0.10;99.90;;;;;;5064944;28;20024;-69
2021/11/23 04:09:45;;;;;;;14.52;8.23;;;-0.10;99.90;;;;;;5069799;28;20036;-68
2021/11/23 04:12:11;;;;;;;13.52;8.73;;;-0.10;99.90;;;;;;5071554;28;20066;-69
2021/11/23 04:14:39;;;;;;;13.27;8.82;;;-0.10;99.90;;;;;;5071472;28;20028;-68
2021/11/23 04:17:06;;;;;;;14.30;8.68;;;-0.10;99.90;;;;;;5066321;28;20035;-69
2021/11/23 04:19:31;;;;;;;12.35;8.38;;;-0.10;99.90;;;;;;5060824;28;20029;-68
2021/11/23 04:21:58;;;;;;;11.30;7.75;;;-0.20;99.90;;;;;;5070222;28;20422;-68
2021/11/23 04:24:25;;;;;;;11.65;8.15;;;-0.20;99.90;;;;;;5071929;28;20027;-69
2021/11/23 04:26:51;;;;;;;12.48;8.27;;;-0.20;99.90;;;;;;5066475;28;20029;-70
2021/11/23 04:29:17;;;;;;;12.35;8.18;;;-0.20;99.90;;;;;;5068481;28;20039;-69
2021/11/23 04:31:43;;;;;;;22.45;9.82;;;-0.20;99.90;;;;;;5071654;28;20491;-68
2021/11/23 04:34:09;;;;;;;32.38;12.10;;;-0.20;99.90;;;;;;5061056;28;20107;-69
2021/11/23 04:36:34;;;;;;;26.08;10.63;;;-0.20;99.90;;;;;;5068867;28;20100;-69
2021/11/23 04:39:00;;;;;;;17.33;9.70;;;-0.20;99.90;;;;;;5068580;28;20039;-68
2021/11/23 04:41:26;;;;;;;15.52;8.98;;;-0.20;99.90;;;;;;5069186;28;20033;-68
2021/11/23 04:43:53;;;;;;;15.45;9.30;;;-0.20;99.90;;;;;;5069616;28;20467;-68
2021/11/23 04:46:19;;;;;;;19.38;9.60;;;-0.20;99.90;;;;;;5071315;28;20170;-68
2021/11/23 04:48:46;;;;;;;17.38;9.45;;;-0.20;99.90;;;;;;5070506;28;20716;-70
2021/11/23 04:51:11;;;;;;;14.88;9.23;;;-0.20;99.90;;;;;;5052077;28;20040;-69
2021/11/23 04:53:37;;;;;;;16.05;9.05;;;-0.20;99.90;;;;;;5061332;28;20028;-69
2021/11/23 04:56:03;;;;;;;15.95;9.05;;;-0.30;99.90;;;;;;5065345;28;20031;-69
2021/11/23 04:58:28;;;;;;;14.07;9.35;;;-0.30;99.90;;;;;;5063478;28;20060;-68
2021/11/23 05:00:54;;;;;;;15.15;9.18;;;-0.30;99.90;;;;;;5073072;28;20028;-68
2021/11/23 05:03:20;;;;;;;12.45;8.55;;;-0.30;99.90;;;;;;5055934;28;20032;-67
2021/11/23 05:05:45;;;;;;;12.85;9.38;;;-0.30;99.90;;;;;;5068462;28;20104;-68
2021/11/23 05:08:11;;;;;;;12.48;8.82;;;-0.30;99.90;;;;;;5070453;28;20098;-68
2021/11/23 05:10:36;;;;;;;15.20;9.73;;;-0.30;99.90;;;;;;5062109;28;20039;-68
2021/11/23 05:13:02;;;;;;;13.07;9.73;;;-0.30;99.90;;;;;;5057689;28;20423;-68
2021/11/23 05:15:28;;;;;;;12.82;8.90;;;-0.30;99.90;;;;;;5066423;28;20112;-67
2021/11/23 05:17:53;;;;;;;12.23;8.65;;;-0.30;99.90;;;;;;5079587;28;20053;-68
2021/11/23 05:20:19;;;;;;;15.40;9.13;;;-0.40;99.90;;;;;;5064972;28;20034;-67
2021/11/23 05:22:46;;;;;;;14.75;9.30;;;-0.40;99.90;;;;;;5061152;28;20037;-67
2021/11/23 05:25:11;;;;;;;13.73;8.93;;;-0.40;99.90;;;;;;5056799;28;20021;-68
2021/11/23 05:27:39;;;;;;;13.93;9.98;;;-0.40;99.90;;;;;;5068094;28;20036;-68
2021/11/23 05:30:05;;;;;;;15.13;9.77;;;-0.50;99.90;;;;;;5068120;28;20098;-67
2021/11/23 05:32:30;;;;;;;12.93;9.15;;;-0.50;99.90;;;;;;5050964;28;20021;-68
2021/11/23 05:34:56;;;;;;;14.80;9.45;;;-0.50;99.90;;;;;;5060196;28;20031;-68
2021/11/23 05:37:22;;;;;;;13.30;9.25;;;-0.50;99.90;;;;;;5061851;28;20495;-68
2021/11/23 05:39:47;;;;;;;15.18;9.63;;;-0.50;99.90;;;;;;5053536;28;20070;-68
2021/11/23 05:42:13;;;;;;;17.48;10.02;;;-0.50;99.90;;;;;;5051073;28;20036;-68
2021/11/23 05:44:39;;;;;;;19.08;10.35;;;-0.50;99.90;;;;;;5059739;28;20466;-68
2021/11/23 05:47:06;;;;;;;14.93;10.10;;;-0.50;99.90;;;;;;5065290;28;20021;-68
2021/11/23 05:49:31;;;;;;;18.17;10.30;;;-0.50;99.90;;;;;;5069691;28;20028;-68
2021/11/23 05:51:58;;;;;;;16.17;10.00;;;-0.50;99.90;;;;;;5066594;28;20120;-68
2021/11/23 05:54:24;;;;;;;15.02;10.15;;;-0.50;99.90;;;;;;5068515;28;20027;-68
2021/11/23 05:56:49;;;;;;;13.60;9.57;;;-0.50;99.90;;;;;;5069630;28;20036;-68
2021/11/23 05:59:17;;;;;;;15.15;10.27;;;-0.40;99.90;;;;;;5069111;28;20024;-68
2021/11/23 06:01:43;;;;;;;14.80;9.73;;;-0.40;99.90;;;;;;5070071;28;20035;-68
2021/11/23 06:04:08;;;;;;;15.25;9.95;;;-0.40;99.90;;;;;;5067952;28;20504;-73
2021/11/23 06:06:34;;;;;;;16.10;10.02;;;-0.40;99.90;;;;;;5073502;28;20224;-66
2021/11/23 06:08:59;;;;;;;14.60;9.27;;;-0.40;99.90;;;;;;5066771;28;20472;-68
2021/11/23 06:11:25;;;;;;;16.00;10.27;;;-0.40;99.90;;;;;;5070798;28;20040;-68
2021/11/23 06:13:52;;;;;;;14.20;9.75;;;-0.40;99.90;;;;;;5071249;28;20116;-71
2021/11/23 06:16:19;;;;;;;13.70;9.13;;;-0.40;99.90;;;;;;5070165;28;20128;-68
2021/11/23 06:18:44;;;;;;;13.90;9.88;;;-0.40;99.90;;;;;;5075952;28;20060;-69
2021/11/23 06:21:10;;;;;;;14.48;9.00;;;-0.40;99.90;;;;;;5082793;28;20025;-68
2021/11/23 06:23:36;;;;;;;13.88;8.98;;;-0.40;99.90;;;;;;5066770;28;20094;-67
2021/11/23 06:26:03;;;;;;;13.73;9.18;;;-0.40;99.90;;;;;;5066770;28;20035;-67
2021/11/23 06:28:29;;;;;;;13.00;9.05;;;-0.40;99.90;;;;;;5073732;28;20024;-67
2021/11/23 06:30:55;;;;;;;13.23;9.25;;;-0.40;99.90;;;;;;5068711;28;20086;-66
2021/11/23 06:33:21;;;;;;;15.43;9.75;;;-0.40;99.90;;;;;;5071628;28;20032;-69
2021/11/23 06:35:47;;;;;;;12.55;9.00;;;-0.40;99.90;;;;;;5065628;28;20044;-68
2021/11/23 06:38:13;;;;;;;11.75;8.75;;;-0.40;99.90;;;;;;5067908;28;20017;-67
2021/11/23 06:40:40;;;;;;;12.93;8.70;;;-0.40;99.90;;;;;;5061459;28;20029;-67
2021/11/23 06:43:07;;;;;;;14.43;8.40;;;-0.40;99.90;;;;;;5070531;28;20392;-67
2021/11/23 06:45:33;;;;;;;13.98;9.10;;;-0.40;99.90;;;;;;5068633;28;20028;-67
2021/11/23 06:47:59;;;;;;;13.88;8.98;;;-0.40;99.90;;;;;;5069798;28;20025;-67
2021/11/23 06:50:31;;;;;;;14.02;8.77;;;-0.40;99.90;;;;;;5070148;28;20472;-68
2021/11/23 06:52:58;;;;;;;16.48;8.85;;;-0.40;99.90;;;;;;5069932;28;20028;-67
2021/11/23 06:55:24;;;;;;;14.80;9.52;;;-0.40;99.90;;;;;;5070516;28;20048;-68
2021/11/23 06:57:50;;;;;;;12.32;8.82;;;-0.40;99.90;;;;;;5067308;28;20076;-67
2021/11/23 07:00:15;;;;;;;13.40;8.98;;;-0.40;99.90;;;;;;5087325;28;20039;-67
2021/11/23 07:02:41;;;;;;;12.23;8.55;;;-0.40;99.90;;;;;;5072989;28;20333;-68
2021/11/23 07:05:07;;;;;;;12.95;9.02;;;-0.30;99.90;;;;;;5067894;28;20024;-68
2021/11/23 07:07:33;;;;;;;13.43;9.05;;;-0.40;99.90;;;;;;5067312;28;20028;-67
2021/11/23 07:09:58;;;;;;;17.10;9.43;;;-0.40;99.90;;;;;;5070476;28;20066;-68
2021/11/23 07:12:24;;;;;;;20.85;9.13;;;-0.40;99.90;;;;;;5069900;28;20036;-67
2021/11/23 07:14:49;;;;;;;22.73;9.75;;;-0.40;99.90;;;;;;5070436;28;20024;-67
2021/11/23 07:17:15;;;;;;;14.52;8.82;;;-0.40;99.90;;;;;;5071652;28;20132;-67
2021/11/23 07:19:40;;;;;;;13.73;8.80;;;-0.30;99.90;;;;;;5069463;28;20033;-68
2021/11/23 07:22:06;;;;;;;16.42;9.65;;;-0.30;99.90;;;;;;5069803;28;20016;-67
2021/11/23 07:24:32;;;;;;;13.00;8.55;;;-0.30;99.90;;;;;;5068110;28;20464;-68
2021/11/23 07:26:57;;;;;;;14.20;8.70;;;-0.20;99.90;;;;;;5068509;28;20028;-68
2021/11/23 07:29:23;;;;;;;11.80;8.52;;;-0.20;99.90;;;;;;5069570;28;20029;-68
2021/11/23 07:31:49;;;;;;;15.88;9.00;;;-0.10;99.90;;;;;;5067376;28;20021;-68
2021/11/23 07:34:14;;;;;;;12.52;8.60;;;-0.10;99.90;;;;;;5069019;28;20095;-69
2021/11/23 07:36:40;;;;;;;15.25;8.88;;;0.00;99.90;;;;;;5063607;28;20029;-68
2021/11/23 07:39:07;;;;;;;12.73;8.25;;;0.10;99.90;;;;;;5066602;28;20021;-68
2021/11/23 07:41:33;;;;;;;12.85;9.07;;;0.20;99.90;;;;;;5068868;28;20023;-68
2021/11/23 07:43:58;;;;;;;15.55;9.35;;;0.20;99.90;;;;;;5068765;28;20021;-68
2021/11/23 07:46:25;;;;;;;14.25;9.32;;;0.30;99.90;;;;;;5066047;28;20396;-68
2021/11/23 07:48:52;;;;;;;11.98;8.27;;;0.30;99.90;;;;;;5058239;28;20021;-68
2021/11/23 07:51:18;;;;;;;16.30;8.90;;;0.30;99.90;;;;;;5073002;28;20040;-68
2021/11/23 07:53:43;;;;;;;13.00;8.77;;;0.40;99.90;;;;;;5067843;28;20024;-68
2021/11/23 07:56:11;;;;;;;15.98;8.90;;;0.50;99.90;;;;;;5072225;28;20787;-68
2021/11/23 07:58:36;;;;;;;12.27;8.38;;;0.50;99.90;;;;;;5072186;28;20103;-68
2021/11/23 08:01:03;;;;;;;13.82;8.57;;;0.60;99.90;;;;;;5071458;28;20044;-68
2021/11/23 08:03:29;;;;;;;14.23;8.50;;;0.60;99.90;;;;;;5072790;28;20102;-68
2021/11/23 08:05:55;;;;;;;12.43;8.40;;;0.60;99.90;;;;;;5072104;28;20032;-69
2021/11/23 08:08:20;;;;;;;13.20;8.48;;;0.60;99.90;;;;;;5071860;28;20070;-69
2021/11/23 08:10:46;;;;;;;16.48;8.57;;;0.70;99.90;;;;;;5073332;28;20029;-69
2021/11/23 08:13:12;;;;;;;13.63;9.00;;;0.70;99.90;;;;;;5073030;28;20020;-69
2021/11/23 08:15:38;;;;;;;16.70;8.90;;;0.80;99.90;;;;;;5073562;28;20103;-69
2021/11/23 08:18:07;;;;;;;14.75;8.40;;;0.80;99.90;;;;;;5071886;28;20054;-69
2021/11/23 08:20:34;;;;;;;12.57;8.15;;;0.90;99.90;;;;;;5089333;28;20024;-69
2021/11/23 08:23:00;;;;;;;11.35;8.15;;;0.90;99.90;;;;;;5072882;28;20028;-69
2021/11/23 08:25:26;;;;;;;17.38;8.93;;;0.90;99.90;;;;;;5072625;28;20028;-69
2021/11/23 08:27:54;;;;;;;12.77;8.80;;;1.00;99.90;;;;;;5055995;28;20032;-69
2021/11/23 08:30:19;;;;;;;11.85;7.88;;;1.00;99.90;;;;;;5073021;28;20485;-69
2021/11/23 08:32:45;;;;;;;11.07;7.97;;;1.10;99.90;;;;;;5072938;28;20039;-69
2021/11/23 08:35:11;;;;;;;11.73;8.05;;;1.10;99.90;;;;;;5071749;28;20043;-69
2021/11/23 08:37:36;;;;;;;11.93;7.75;;;1.10;99.90;;;;;;5070120;28;20055;-69
2021/11/23 08:40:05;;;;;;;10.50;7.97;;;1.10;99.90;;;;;;5068507;28;20021;-69
2021/11/23 08:42:31;;;;;;;11.57;8.35;;;1.10;99.90;;;;;;5062301;28;20412;-69
2021/11/23 08:44:57;;;;;;;11.88;8.90;;;1.20;99.90;;;;;;5072369;28;20029;-69
2021/11/23 08:47:23;;;;;;;14.38;7.93;;;1.20;99.90;;;;;;5069785;28;20032;-68
2021/11/23 08:49:50;;;;;;;10.68;8.00;;;1.20;99.90;;;;;;5072036;28;20025;-69
2021/11/23 08:52:17;;;;;;;13.38;8.25;;;1.20;99.90;;;;;;5071551;28;20033;-69
2021/11/23 08:54:43;;;;;;;12.07;8.25;;;1.20;99.90;;;;;;5064437;28;20610;-70
2021/11/23 08:57:09;;;;;;;13.95;8.18;;;1.30;99.90;;;;;;5076454;28;20024;-69
2021/11/23 08:59:46;;;;;;;12.35;8.32;;;1.30;99.90;;;;;;5064617;28;20024;-68
2021/11/23 09:02:14;;;;;;;11.13;7.72;;;1.30;99.90;;;;;;5067444;28;20027;-69
2021/11/23 09:07:11;;;;;;;15.60;8.25;;;1.40;99.90;;;;;;4975085;28;20656;-66
2021/11/23 09:09:41;;;;;;;14.18;8.73;;;1.40;99.90;;;;;;4975131;28;20510;-68
2021/11/23 09:12:07;;;;;;;10.70;8.25;;;1.40;99.90;;;;;;4969321;28;20030;-67
2021/11/23 09:14:35;;;;;;;14.23;8.95;;;1.50;99.90;;;;;;4968837;28;20457;-67
2021/11/23 09:17:06;;;;;;;11.82;8.70;;;1.50;99.90;;;;;;4969632;28;20061;-68
2021/11/23 09:19:32;;;;;;;11.63;8.43;;;1.60;99.90;;;;;;4969112;28;20050;-66
2021/11/23 09:21:58;;;;;;;11.25;8.05;;;1.60;99.90;;;;;;4969836;28;20046;-68
2021/11/23 09:24:24;;;;;;;12.73;8.48;;;1.70;99.90;;;;;;4969455;28;20027;-66
2021/11/23 09:26:51;;;;;;;12.13;7.82;;;1.70;99.90;;;;;;5036247;28;20027;-67
2021/11/23 09:29:18;;;;;;;11.30;7.72;;;1.70;99.90;;;;;;4968477;28;20019;-67
2021/11/23 09:31:45;;;;;;;12.13;7.43;;;1.70;99.90;;;;;;4970074;28;20653;-65
2021/11/23 09:34:12;;;;;;;10.05;7.40;;;1.80;99.90;;;;;;4969093;28;20022;-68
2021/11/23 09:36:38;;;;;;;10.68;7.43;;;1.80;99.90;;;;;;4969176;28;20485;-67
2021/11/23 09:39:05;;;;;;;10.23;7.43;;;1.90;99.90;;;;;;4967634;28;20509;-68
2021/11/23 09:41:33;;;;;;;10.05;7.53;;;1.90;99.90;;;;;;4966542;28;20043;-66
2021/11/23 09:43:59;;;;;;;9.73;7.95;;;2.00;99.90;;;;;;4969893;28;20103;-66
2021/11/23 09:46:25;;;;;;;10.35;7.25;;;2.00;99.90;;;;;;4969787;28;20031;-67
2021/11/23 09:48:51;;;;;;;9.40;7.15;;;2.10;99.90;;;;;;5035863;28;20022;-67
2021/11/23 09:51:26;;;;;;;8.93;7.00;;;2.10;99.90;;;;;;4969869;28;20027;-66
2021/11/23 09:53:53;;;;;;;9.80;7.40;;;2.10;99.90;;;;;;4970418;28;20499;-67
2021/11/23 09:56:20;;;;;;;9.88;7.22;;;2.20;99.90;;;;;;5034131;28;20031;-66
2021/11/23 09:58:46;;;;;;;9.60;6.95;;;2.30;99.90;;;;;;4968762;28;20025;-67
2021/11/23 10:01:12;;;;;;;9.93;6.95;;;2.30;99.90;;;;;;4963924;28;20050;-66
2021/11/23 10:03:39;;;;;;;8.85;6.80;;;2.30;99.90;;;;;;4968573;28;20030;-67
2021/11/23 10:06:12;;;;;;;10.18;6.88;;;2.40;99.90;;;;;;4968566;28;20031;-67
2021/11/23 10:08:40;;;;;;;9.85;7.07;;;2.40;99.90;;;;;;4967442;28;20101;-66
2021/11/23 10:11:07;;;;;;;11.00;7.38;;;2.40;99.90;;;;;;4969079;28;20466;-67
2021/11/23 10:13:38;;;;;;;11.32;7.93;;;2.50;99.90;;;;;;4969169;28;20037;-67
2021/11/23 10:16:04;;;;;;;9.70;7.07;;;2.50;99.90;;;;;;4969221;28;20031;-67
2021/11/23 10:18:30;;;;;;;11.05;7.20;;;2.60;99.90;;;;;;5034590;28;20033;-66
2021/11/23 10:20:58;;;;;;;9.25;7.00;;;2.60;99.90;;;;;;4967588;28;20031;-66
2021/11/23 10:23:26;;;;;;;9.07;7.22;;;2.60;99.90;;;;;;4969411;28;20049;-67
2021/11/23 10:26:01;;;;;;;9.13;6.43;;;2.60;99.90;;;;;;4968297;28;20479;-66
2021/11/23 10:28:31;;;;;;;8.98;5.97;;;2.70;99.90;;;;;;5026696;28;20057;-66
2021/11/23 10:30:59;;;;;;;7.38;5.70;;;2.70;99.90;;;;;;4966051;28;20019;-67
2021/11/23 10:33:25;;;;;;;7.78;5.00;;;2.80;99.90;;;;;;4965660;28;20368;-66
2021/11/23 10:35:56;;;;;;;5.68;4.85;;;2.90;99.90;;;;;;4964752;28;20038;-67
2021/11/23 10:38:23;;;;;;;5.90;5.07;;;2.90;99.90;;;;;;4964919;28;20031;-67
2021/11/23 10:40:50;;;;;;;6.57;5.25;;;2.90;99.90;;;;;;4964973;28;20038;-67
2021/11/23 10:43:20;;;;;;;6.30;4.80;;;3.00;99.90;;;;;;4965716;28;20035;-67
2021/11/23 10:45:53;;;;;;;7.15;4.95;;;3.10;99.90;;;;;;4965413;28;20031;-67
2021/11/23 10:48:23;;;;;;;6.30;4.60;;;3.10;99.90;;;;;;4967276;28;20051;-67
2021/11/23 10:51:04;;;;;;;4.53;3.80;;;3.20;99.90;;;;;;4964856;28;20023;-66
2021/11/23 10:53:31;;;;;;;4.53;3.65;;;3.20;99.90;;;;;;5031179;28;20031;-67
2021/11/23 10:56:08;;;;;;;3.90;3.60;;;3.30;99.90;;;;;;4965252;28;20105;-67
2021/11/23 10:58:34;;;;;;;6.82;4.30;;;3.40;99.90;;;;;;4963824;28;20031;-67
2021/11/23 11:01:02;;;;;;;5.75;4.30;;;3.40;99.90;;;;;;4952145;28;20093;-67
2021/11/23 11:03:32;;;;;;;5.65;4.53;;;3.40;99.80;;;;;;4965895;28;20027;-67
2021/11/23 11:06:00;;;;;;;4.45;4.05;;;3.50;99.80;;;;;;4964261;28;20088;-67
2021/11/23 11:08:28;;;;;;;5.03;4.53;;;3.50;99.80;;;;;;4964097;28;20019;-67
2021/11/23 11:10:54;;;;;;;4.45;4.05;;;3.50;99.70;;;;;;4965574;28;20070;-67
2021/11/23 11:13:22;;;;;;;6.97;4.15;;;3.50;99.80;;;;;;4964899;28;20026;-64
2021/11/23 11:15:59;;;;;;;5.47;4.18;;;3.60;99.80;;;;;;4964543;28;20106;-66
2021/11/23 11:18:25;;;;;;;6.93;4.18;;;3.60;99.70;;;;;;4964020;28;20027;-67
2021/11/23 11:21:00;;;;;;;5.03;3.97;;;3.60;99.70;;;;;;4965232;28;20058;-67
2021/11/23 11:23:29;;;;;;;5.28;4.45;;;3.60;99.70;;;;;;5032301;28;20059;-67
2021/11/23 11:26:01;;;;;;;5.15;4.03;;;3.70;99.70;;;;;;4968382;28;20026;-67
2021/11/23 11:28:49;;;;;;;6.70;3.92;;;3.70;99.70;;;;;;5014284;28;20039;-66
2021/11/23 11:31:30;;;;;;;4.82;3.90;;;3.80;99.70;;;;;;4952112;28;20025;-67
2021/11/23 11:34:23;;;;;;;5.35;3.95;;;3.90;99.60;;;;;;5035546;28;20402;-67
2021/11/23 11:37:02;;;;;;;3.58;3.28;;;3.90;99.50;;;;;;4968275;28;20521;-67
2021/11/23 11:39:37;;;;;;;3.50;3.10;;;4.00;99.50;;;;;;4968634;28;20103;-67
2021/11/23 11:42:08;;;;;;;3.78;3.35;;;4.10;99.30;;;;;;4967400;28;20063;-66
2021/11/23 11:44:42;;;;;;;3.95;3.42;;;4.10;99.20;;;;;;4968183;28;20478;-67
2021/11/23 11:47:11;;;;;;;3.40;3.10;;;4.30;99.00;;;;;;4959316;28;20031;-66
2021/11/23 11:49:52;;;;;;;4.47;3.08;;;4.40;99.00;;;;;;4968277;28;20557;-66
2021/11/23 11:52:22;;;;;;;3.20;2.72;;;4.60;98.70;;;;;;4968191;28;20038;-67
2021/11/23 11:55:17;;;;;;;3.08;2.08;;;4.90;98.60;;;;;;4968141;28;20027;-67
2021/11/23 11:57:46;;;;;;;2.72;2.30;;;5.10;98.20;;;;;;4964843;28;20035;-67
2021/11/23 12:00:24;;;;;;;3.53;2.20;;;5.30;98.00;;;;;;5034849;28;20371;-67
2021/11/23 12:02:53;;;;;;;3.58;2.00;;;5.40;97.70;;;;;;4966367;28;20033;-66
2021/11/23 12:05:19;;;;;;;2.13;1.95;;;5.50;97.60;;;;;;4970472;28;20482;-67
2021/11/23 12:07:46;;;;;;;2.55;2.28;;;5.70;97.70;;;;;;4970391;28;20114;-67
2021/11/23 12:10:32;;;;;;;2.50;2.30;;;5.80;97.50;;;;;;4971510;28;20027;-68
2021/11/23 12:13:35;;;;;;;2.30;2.10;;;5.90;97.30;;;;;;4971458;28;20072;-68
2021/11/23 12:16:22;;;;;;;2.50;2.00;;;6.00;97.10;;;;;;4986740;28;20026;-68
2021/11/23 12:19:02;;;;;;;5.13;2.20;;;6.20;97.30;;;;;;4969740;28;20113;-67
2021/11/23 12:21:31;;;;;;;2.25;1.70;;;6.30;97.10;;;;;;4971411;28;20045;-67
2021/11/23 12:23:59;;;;;;;2.13;1.90;;;6.40;97.00;;;;;;4971242;28;20027;-67
2021/11/23 12:26:35;;;;;;;2.13;1.75;;;6.50;96.80;;;;;;4971224;28;20031;-67
2021/11/23 12:29:13;;;;;;;2.50;1.70;;;6.70;96.60;;;;;;4970246;28;20019;-68
2021/11/23 12:31:51;;;;;;;1.50;1.40;;;6.80;96.30;;;;;;4971363;28;20395;-67
2021/11/23 12:34:17;;;;;;;1.52;1.42;;;7.00;96.20;;;;;;4970589;28;20023;-67
2021/11/23 12:36:46;;;;;;;2.17;1.40;;;7.00;96.10;;;;;;4971145;28;20023;-67
2021/11/23 12:39:18;;;;;;;1.67;1.40;;;7.20;96.00;;;;;;4969925;28;20446;-68
2021/11/23 12:41:45;;;;;;;1.83;1.17;;;7.30;95.90;;;;;;4971167;28;20035;-67
2021/11/23 12:44:24;;;;;;;1.38;1.27;;;7.40;96.00;;;;;;4970886;28;20770;-67
2021/11/23 12:47:01;;;;;;;2.70;1.48;;;7.50;95.40;;;;;;4970191;28;20134;-67
2021/11/23 12:49:32;;;;;;;1.45;1.00;;;7.50;95.40;;;;;;4970039;28;20031;-68
2021/11/23 12:52:11;;;;;;;2.33;1.20;;;7.60;95.70;;;;;;4966452;28;20371;-67
2021/11/23 12:54:49;;;;;;;1.92;1.40;;;7.70;95.20;;;;;;4967528;28;20026;-67
2021/11/23 12:57:17;;;;;;;1.40;1.00;;;7.80;95.00;;;;;;4963617;28;20517;-67